Shirahamamaru — JG4872 — position and weather

sailwx.info

Track history (hours):
 
Tides and Currents Weather Stations Pressure Air Temp Water Temp Dewpoint Dewpoint Depression Visibility Wind Speed Wind Dir Waves Ship Positions

Shirahamamaru

Last reported at 2018-Apr-21 23:00 UTC. Time now 2018-Apr-21 23:25 UTC.
Position N 35°13' E 139°43'.

Length 79 m; draft 3.2 m.

Type: Passenger vessel. MMSI: 431000239.

Date/timePositionNaut miles runAvg speedWind from/ knotsBaromVisibWave heightAir tempDewpointWater temp
2018-Apr-21 23:00N 35°13' E 139°43'4 7.1
2018-Apr-21 22:30N 35°12' E 139°47'2 4.8
2018-Apr-21 22:01N 35°10' E 139°49'5 9.8
2018-Apr-21 21:30N 35°13' E 139°44'1 1.9
2018-Apr-21 21:00N 35°13' E 139°43'0 0.0
2018-Apr-21 11:10N 35°13' E 139°43'1 5.6
2018-Apr-21 11:00N 35°13' E 139°44'5 9.9
2018-Apr-21 10:30N 35°10' E 139°49'0 0.0
2018-Apr-21 10:00N 35°10' E 139°49'4 8.1
2018-Apr-21 09:30N 35°13' E 139°45'2 3.6
2018-Apr-21 09:00N 35°13' E 139°43'4 8.9
2018-Apr-21 08:30N 35°11' E 139°48'1 2.8
2018-Apr-21 08:00N 35°10' E 139°49'5 9.7
2018-Apr-21 07:30N 35°13' E 139°44'1 2.1
2018-Apr-21 07:00N 35°13' E 139°43'5 9.0
2018-Apr-21 06:30N 35°11' E 139°48'1 2.8
2018-Apr-21 06:00N 35°10' E 139°49'510.6
2018-Apr-21 05:30N 35°13' E 139°44'1 1.3
2018-Apr-21 05:00N 35°13' E 139°43'4 7.3
2018-Apr-21 04:30N 35°12' E 139°47'2 4.6
2018-Apr-21 04:00N 35°10' E 139°49'4 8.2
2018-Apr-21 03:30N 35°13' E 139°45'2 3.5
2018-Apr-21 03:00N 35°13' E 139°43'4 8.8
2018-Apr-21 02:30N 35°11' E 139°48'2 3.0
2018-Apr-21 02:00N 35°10' E 139°49'510.1
2018-Apr-21 01:30N 35°13' E 139°44'1 1.7
2018-Apr-21 01:00N 35°13' E 139°43'4 9.0
2018-Apr-21 00:30N 35°11' E 139°48'1 2.8
2018-Apr-21 00:00N 35°10' E 139°49'510.0
2018-Apr-20 23:30N 35°13' E 139°44'1 1.7
2018-Apr-20 23:00N 35°13' E 139°43'4 7.4
2018-Apr-20 22:30N 35°12' E 139°47'2 4.5
2018-Apr-20 22:00N 35°10' E 139°49'510.1
2018-Apr-20 21:30N 35°13' E 139°44'1 1.7
2018-Apr-20 21:00N 35°13' E 139°43'0 0.0
2018-Apr-20 11:08N 35°13' E 139°43'1 4.4
2018-Apr-20 11:00N 35°13' E 139°44'510.8
2018-Apr-20 10:30N 35°10' E 139°49'0 0.0
2018-Apr-20 10:00N 35°10' E 139°49'4 8.1
2018-Apr-20 09:30N 35°13' E 139°45'2 3.7
2018-Apr-20 09:00N 35°13' E 139°43'5 9.1
2018-Apr-20 08:30N 35°11' E 139°48'1 2.7
2018-Apr-20 08:00N 35°10' E 139°49'510.2
2018-Apr-20 07:30N 35°13' E 139°44'1 1.6
2018-Apr-20 07:00N 35°13' E 139°43'4 8.9
2018-Apr-20 06:30N 35°11' E 139°48'1 2.9
2018-Apr-20 06:00N 35°10' E 139°49'0 0.0
2018-Apr-20 05:30N 35°10' E 139°49'510.0
2018-Apr-20 05:00N 35°13' E 139°44'1 1.7
2018-Apr-20 04:30N 35°13' E 139°43'0 0.0
2018-Apr-20 04:00N 35°13' E 139°43'1 1.7
2018-Apr-20 03:30N 35°13' E 139°44'510.2
2018-Apr-20 03:00N 35°10' E 139°49'0 0.0
2018-Apr-20 02:30N 35°10' E 139°49'0 0.0
2018-Apr-20 02:00N 35°10' E 139°49'5 9.7
2018-Apr-20 01:30N 35°13' E 139°44'1 2.0
2018-Apr-20 01:00N 35°13' E 139°43'4 8.8
2018-Apr-20 00:30N 35°11' E 139°48'1 2.9
2018-Apr-20 00:00N 35°10' E 139°49'5 9.7
2018-Apr-19 23:30N 35°13' E 139°44'1 2.1
2018-Apr-19 23:00N 35°13' E 139°43'3 6.9
2018-Apr-19 22:30N 35°11' E 139°47'2 4.7
2018-Apr-19 22:00N 35°10' E 139°49'510.1
2018-Apr-19 21:30N 35°13' E 139°44'1 1.9
2018-Apr-19 21:00N 35°13' E 139°43'0 0.0
2018-Apr-19 11:10N 35°13' E 139°43'1 4.8
2018-Apr-19 11:00N 35°13' E 139°44'510.4
2018-Apr-19 10:30N 35°10' E 139°49'0 0.0
2018-Apr-19 10:00N 35°10' E 139°49'4 7.5
2018-Apr-19 09:30N 35°13' E 139°45'2 4.4
2018-Apr-19 09:00N 35°13' E 139°43'4 8.6
2018-Apr-19 08:30N 35°11' E 139°48'2 3.1
2018-Apr-19 08:00N 35°10' E 139°49'510.0
2018-Apr-19 07:30N 35°13' E 139°44'1 1.9
2018-Apr-19 07:00N 35°13' E 139°43'4 8.7
2018-Apr-19 06:30N 35°11' E 139°48'2 3.2
2018-Apr-19 06:00N 35°10' E 139°49'0 0.0
2018-Apr-19 05:30N 35°10' E 139°49'5 9.7
2018-Apr-19 05:00N 35°13' E 139°44'1 2.1
2018-Apr-19 04:30N 35°13' E 139°43'0 0.0
2018-Apr-19 04:00N 35°13' E 139°43'1 1.3
2018-Apr-19 03:30N 35°13' E 139°44'510.6
2018-Apr-19 03:00N 35°10' E 139°49'0 0.0
2018-Apr-19 02:30N 35°10' E 139°49'0 0.0
2018-Apr-19 01:59N 35°10' E 139°49'510.2
2018-Apr-19 01:30N 35°13' E 139°44'1 1.9
2018-Apr-19 01:00N 35°13' E 139°43'4 8.7
2018-Apr-19 00:30N 35°11' E 139°48'1 3.0
2018-Apr-19 00:00N 35°10' E 139°49'5 9.7
2018-Apr-18 23:30N 35°13' E 139°44'1 2.1
2018-Apr-18 23:00N 35°13' E 139°43'3 6.7
2018-Apr-18 22:30N 35°12' E 139°47'3 5.1
2018-Apr-18 22:00N 35°10' E 139°49'5 9.4
2018-Apr-18 21:30N 35°13' E 139°44'1 2.5
2018-Apr-18 21:00N 35°13' E 139°43'0 0.0
2018-Apr-18 11:08N 35°13' E 139°43'0 3.9
2018-Apr-18 11:00N 35°13' E 139°43'510.9
2018-Apr-18 10:30N 35°10' E 139°49'0 0.0
2018-Apr-18 10:00N 35°10' E 139°49'4 7.4
2018-Apr-18 09:30N 35°12' E 139°45'2 4.3
2018-Apr-18 09:01N 35°13' E 139°43'5 8.9
2018-Apr-18 08:30N 35°11' E 139°48'1 2.8
2018-Apr-18 08:01N 35°10' E 139°49'5 9.3
2018-Apr-18 07:30N 35°13' E 139°44'1 2.5
2018-Apr-18 07:00N 35°13' E 139°43'4 9.0
2018-Apr-18 06:30N 35°11' E 139°48'1 2.9
2018-Apr-18 06:00N 35°10' E 139°49'0 0.0
2018-Apr-18 05:31N 35°10' E 139°49'5 9.8
2018-Apr-18 05:00N 35°13' E 139°44'1 1.9
2018-Apr-18 04:30N 35°13' E 139°43'0 0.0
2018-Apr-18 04:00N 35°13' E 139°43'1 2.1
2018-Apr-18 03:30N 35°13' E 139°44'5 9.9
2018-Apr-18 03:01N 35°10' E 139°49'0 0.0
2018-Apr-18 02:30N 35°10' E 139°49'0 0.0
2018-Apr-18 02:00N 35°10' E 139°49'510.4
2018-Apr-18 01:30N 35°13' E 139°44'1 1.4
2018-Apr-18 00:59N 35°13' E 139°43'5 9.5
2018-Apr-18 00:30N 35°11' E 139°48'1 2.6
2018-Apr-18 00:00N 35°10' E 139°49'510.3
2018-Apr-17 23:30N 35°13' E 139°44'1 1.5
2018-Apr-17 22:59N 35°13' E 139°43'4 7.4
2018-Apr-17 22:30N 35°11' E 139°47'2 4.6
2018-Apr-17 22:00N 35°10' E 139°49'5 9.3
2018-Apr-17 21:30N 35°13' E 139°44'1 2.4
2018-Apr-17 21:00N 35°13' E 139°43'0 0.0
2018-Apr-17 11:10N 35°13' E 139°43'1 3.7
2018-Apr-17 11:00N 35°13' E 139°44'510.7
2018-Apr-17 10:30N 35°10' E 139°49'0 0.0
2018-Apr-17 10:00N 35°10' E 139°49'4 7.9
2018-Apr-17 09:30N 35°12' E 139°45'2 3.9
2018-Apr-17 09:00N 35°13' E 139°43'4 9.0
2018-Apr-17 08:30N 35°11' E 139°48'1 2.9
2018-Apr-17 08:00N 35°10' E 139°49'5 9.4
2018-Apr-17 07:30N 35°13' E 139°44'1 2.4
2018-Apr-17 07:00N 35°13' E 139°43'5 9.1
2018-Apr-17 06:30N 35°11' E 139°48'1 2.7
2018-Apr-17 06:00N 35°10' E 139°49'0 0.0
2018-Apr-17 05:30N 35°10' E 139°49'510.1
2018-Apr-17 05:00N 35°13' E 139°44'1 1.6
2018-Apr-17 04:30N 35°13' E 139°43'0 0.0
2018-Apr-17 04:00N 35°13' E 139°43'1 2.7
2018-Apr-17 03:30N 35°13' E 139°45'5 9.2
2018-Apr-17 03:00N 35°10' E 139°49'0 0.0
2018-Apr-17 02:30N 35°10' E 139°49'0 0.0
2018-Apr-17 02:00N 35°10' E 139°49'510.2
2018-Apr-17 01:30N 35°13' E 139°44'1 1.6
2018-Apr-17 01:00N 35°13' E 139°43'5 8.9
2018-Apr-17 00:30N 35°11' E 139°48'1 2.8
2018-Apr-17 00:00N 35°10' E 139°49'510.1
2018-Apr-16 23:30N 35°13' E 139°44'1 1.7
2018-Apr-16 23:00N 35°13' E 139°43'3 6.9
2018-Apr-16 22:30N 35°12' E 139°47'2 4.7
2018-Apr-16 22:00N 35°10' E 139°49'510.5
2018-Apr-16 21:30N 35°13' E 139°44'1 1.6
2018-Apr-16 21:00N 35°13' E 139°43'0 0.0
2018-Apr-16 11:09N 35°13' E 139°43'1 4.0
2018-Apr-16 10:59N 35°13' E 139°44'510.6
2018-Apr-16 10:29N 35°10' E 139°49'0 0.0
2018-Apr-16 10:00N 35°10' E 139°49'4 8.3
2018-Apr-16 09:30N 35°13' E 139°45'2 3.5
2018-Apr-16 09:00N 35°13' E 139°43'4 9.0
2018-Apr-16 08:30N 35°11' E 139°48'1 2.9
2018-Apr-16 08:00N 35°10' E 139°49'510.4
2018-Apr-16 07:30N 35°13' E 139°44'1 1.5
2018-Apr-16 07:00N 35°13' E 139°43'4 8.9
2018-Apr-16 06:30N 35°11' E 139°48'1 2.9
2018-Apr-16 06:00N 35°10' E 139°49'0 0.0
2018-Apr-16 05:31N 35°10' E 139°49'5 9.9
2018-Apr-16 05:00N 35°13' E 139°44'1 1.9
2018-Apr-16 04:30N 35°13' E 139°43'0 0.0
2018-Apr-16 03:59N 35°13' E 139°43'1 1.7
2018-Apr-16 03:30N 35°13' E 139°44'510.3
2018-Apr-16 03:01N 35°10' E 139°49'0 0.0
2018-Apr-16 02:30N 35°10' E 139°49'0 0.0
2018-Apr-16 02:00N 35°10' E 139°49'510.2
2018-Apr-16 01:30N 35°13' E 139°44'1 1.6
2018-Apr-16 01:00N 35°13' E 139°43'4 8.8
2018-Apr-16 00:31N 35°11' E 139°47'1 2.9
2018-Apr-16 00:00N 35°10' E 139°49'5 9.8
2018-Apr-15 23:30N 35°13' E 139°44'1 2.0
2018-Apr-15 23:00N 35°13' E 139°43'4 7.5
2018-Apr-15 22:30N 35°11' E 139°46'2 4.6
2018-Apr-15 22:00N 35°10' E 139°49'510.5
2018-Apr-15 21:31N 35°13' E 139°44'1 1.3
2018-Apr-15 21:00N 35°13' E 139°43'0 0.1
2018-Apr-15 20:30N 35°13' E 139°43'0 0.0
2018-Apr-14 10:25N 35°13' E 139°43'0 0.2
2018-Apr-14 10:00N 35°13' E 139°43'510.8
2018-Apr-14 09:30N 35°11' E 139°49'1 1.0
2018-Apr-14 09:00N 35°10' E 139°49'611.5
2018-Apr-14 08:30N 35°13' E 139°43'0 0.2
2018-Apr-14 08:00N 35°13' E 139°43'611.2
2018-Apr-14 07:30N 35°10' E 139°49'0 0.2
2018-Apr-14 07:00N 35°10' E 139°49'611.6
2018-Apr-14 06:30N 35°13' E 139°43'0 0.5
2018-Apr-14 06:00N 35°13' E 139°43'4 8.8
2018-Apr-14 05:30N 35°11' E 139°48'2 3.1
2018-Apr-14 05:00N 35°10' E 139°49'510.0
2018-Apr-14 04:30N 35°13' E 139°44'1 1.8
2018-Apr-14 04:00N 35°13' E 139°43'510.7
2018-Apr-14 03:30N 35°11' E 139°49'1 1.0
2018-Apr-14 03:00N 35°10' E 139°49'611.5
2018-Apr-14 02:30N 35°13' E 139°43'0 0.4
2018-Apr-14 02:01N 35°13' E 139°43'510.8
2018-Apr-14 01:30N 35°10' E 139°49'0 0.7
2018-Apr-14 01:00N 35°10' E 139°49'611.6
2018-Apr-14 00:30N 35°13' E 139°43'0 0.3
2018-Apr-14 00:00N 35°13' E 139°43'3 7.0
2018-Apr-13 23:30N 35°11' E 139°47'2 4.7
2018-Apr-13 23:00N 35°10' E 139°49'5 9.5
2018-Apr-13 22:30N 35°13' E 139°44'1 2.2
2018-Apr-13 22:00N 35°13' E 139°43'5 9.2
2018-Apr-13 21:30N 35°11' E 139°48'1 2.6
2018-Apr-13 21:00N 35°10' E 139°49'0 0.0
2018-Apr-13 10:59N 35°10' E 139°49'4 8.8
2018-Apr-13 10:30N 35°13' E 139°45'2 3.4
2018-Apr-13 10:00N 35°13' E 139°43'510.8
2018-Apr-13 09:30N 35°10' E 139°49'0 1.0
2018-Apr-13 09:00N 35°10' E 139°49'611.6
2018-Apr-13 08:31N 35°13' E 139°43'0 0.4
2018-Apr-13 08:00N 35°13' E 139°43'611.1
2018-Apr-13 07:30N 35°10' E 139°49'0 0.8
2018-Apr-13 07:01N 35°10' E 139°49'611.0
2018-Apr-13 06:30N 35°13' E 139°43'0 0.3
2018-Apr-13 06:00N 35°13' E 139°43'0 0.0
2018-Apr-13 05:30N 35°13' E 139°43'3 5.0
2018-Apr-13 05:00N 35°12' E 139°46'3 6.8
2018-Apr-13 04:31N 35°10' E 139°49'0 0.0
2018-Apr-13 04:00N 35°10' E 139°49'3 6.7
2018-Apr-13 03:30N 35°12' E 139°46'3 5.1
2018-Apr-13 03:00N 35°13' E 139°43'0 0.0
2018-Apr-13 02:30N 35°13' E 139°43'0 0.5
2018-Apr-13 02:00N 35°13' E 139°43'611.1
2018-Apr-13 01:30N 35°10' E 139°49'0 0.5
2018-Apr-13 01:00N 35°10' E 139°49'611.6
2018-Apr-13 00:30N 35°13' E 139°43'0 0.4
2018-Apr-13 00:00N 35°13' E 139°43'4 7.2
2018-Apr-12 23:30N 35°12' E 139°47'2 4.5
2018-Apr-12 23:00N 35°10' E 139°49'510.2
2018-Apr-12 22:30N 35°13' E 139°44'1 1.7
2018-Apr-12 22:00N 35°13' E 139°43'4 8.8
2018-Apr-12 21:30N 35°11' E 139°48'1 2.9
2018-Apr-12 21:01N 35°10' E 139°49'0 0.0
2018-Apr-12 10:58N 35°10' E 139°49'4 8.7
2018-Apr-12 10:30N 35°12' E 139°45'2 3.7
2018-Apr-12 10:01N 35°13' E 139°43'510.8
2018-Apr-12 09:30N 35°11' E 139°49'0 1.0
2018-Apr-12 09:00N 35°10' E 139°49'611.7
2018-Apr-12 08:31N 35°13' E 139°43'1 1.5
2018-Apr-12 08:00N 35°13' E 139°44'510.2
2018-Apr-12 07:30N 35°10' E 139°49'0 0.2
2018-Apr-12 07:00N 35°10' E 139°49'611.6
2018-Apr-12 06:30N 35°13' E 139°43'0 0.3
2018-Apr-12 06:00N 35°13' E 139°43'0 0.0
2018-Apr-12 05:30N 35°13' E 139°43'2 4.7
2018-Apr-12 05:00N 35°12' E 139°45'4 7.0
2018-Apr-12 04:30N 35°10' E 139°49'0 0.0
2018-Apr-12 04:00N 35°10' E 139°49'3 6.0
2018-Apr-12 03:30N 35°12' E 139°46'3 5.7
2018-Apr-12 03:00N 35°13' E 139°43'0 0.0
2018-Apr-12 02:30N 35°13' E 139°43'0 0.1
2018-Apr-12 02:00N 35°13' E 139°43'510.8
2018-Apr-12 01:30N 35°11' E 139°48'1 1.2
2018-Apr-12 01:01N 35°10' E 139°49'611.6
2018-Apr-12 00:30N 35°13' E 139°43'0 0.5
2018-Apr-12 00:00N 35°13' E 139°43'3 6.7
2018-Apr-11 23:30N 35°12' E 139°47'  
Track history (hours):
 
Tides and Currents Weather Stations Pressure Air Temp Water Temp Dewpoint Dewpoint Depression Visibility Wind Speed Wind Dir Waves Ship Positions

Shirahamamaru

Last reported at 2018-Apr-21 23:00 UTC. Time now 2018-Apr-21 23:25 UTC.
Position N 35°13' E 139°43'.

Length 79 m; draft 3.2 m.

Type: Passenger vessel. MMSI: 431000239.

Date/timePositionNaut miles runAvg speedWind from/ knotsBaromVisibWave heightAir tempDewpointWater temp
2018-Apr-21 23:00N 35°13' E 139°43'4 7.1
2018-Apr-21 22:30N 35°12' E 139°47'2 4.8
2018-Apr-21 22:01N 35°10' E 139°49'5 9.8
2018-Apr-21 21:30N 35°13' E 139°44'1 1.9
2018-Apr-21 21:00N 35°13' E 139°43'0 0.0
2018-Apr-21 11:10N 35°13' E 139°43'1 5.6
2018-Apr-21 11:00N 35°13' E 139°44'5 9.9
2018-Apr-21 10:30N 35°10' E 139°49'0 0.0
2018-Apr-21 10:00N 35°10' E 139°49'4 8.1
2018-Apr-21 09:30N 35°13' E 139°45'2 3.6
2018-Apr-21 09:00N 35°13' E 139°43'4 8.9
2018-Apr-21 08:30N 35°11' E 139°48'1 2.8
2018-Apr-21 08:00N 35°10' E 139°49'5 9.7
2018-Apr-21 07:30N 35°13' E 139°44'1 2.1
2018-Apr-21 07:00N 35°13' E 139°43'5 9.0
2018-Apr-21 06:30N 35°11' E 139°48'1 2.8
2018-Apr-21 06:00N 35°10' E 139°49'510.6
2018-Apr-21 05:30N 35°13' E 139°44'1 1.3
2018-Apr-21 05:00N 35°13' E 139°43'4 7.3
2018-Apr-21 04:30N 35°12' E 139°47'2 4.6
2018-Apr-21 04:00N 35°10' E 139°49'4 8.2
2018-Apr-21 03:30N 35°13' E 139°45'2 3.5
2018-Apr-21 03:00N 35°13' E 139°43'4 8.8
2018-Apr-21 02:30N 35°11' E 139°48'2 3.0
2018-Apr-21 02:00N 35°10' E 139°49'510.1
2018-Apr-21 01:30N 35°13' E 139°44'1 1.7
2018-Apr-21 01:00N 35°13' E 139°43'4 9.0
2018-Apr-21 00:30N 35°11' E 139°48'1 2.8
2018-Apr-21 00:00N 35°10' E 139°49'510.0
2018-Apr-20 23:30N 35°13' E 139°44'1 1.7
2018-Apr-20 23:00N 35°13' E 139°43'4 7.4
2018-Apr-20 22:30N 35°12' E 139°47'2 4.5
2018-Apr-20 22:00N 35°10' E 139°49'510.1
2018-Apr-20 21:30N 35°13' E 139°44'1 1.7
2018-Apr-20 21:00N 35°13' E 139°43'0 0.0
2018-Apr-20 11:08N 35°13' E 139°43'1 4.4
2018-Apr-20 11:00N 35°13' E 139°44'510.8
2018-Apr-20 10:30N 35°10' E 139°49'0 0.0
2018-Apr-20 10:00N 35°10' E 139°49'4 8.1
2018-Apr-20 09:30N 35°13' E 139°45'2 3.7
2018-Apr-20 09:00N 35°13' E 139°43'5 9.1
2018-Apr-20 08:30N 35°11' E 139°48'1 2.7
2018-Apr-20 08:00N 35°10' E 139°49'510.2
2018-Apr-20 07:30N 35°13' E 139°44'1 1.6
2018-Apr-20 07:00N 35°13' E 139°43'4 8.9
2018-Apr-20 06:30N 35°11' E 139°48'1 2.9
2018-Apr-20 06:00N 35°10' E 139°49'0 0.0
2018-Apr-20 05:30N 35°10' E 139°49'510.0
2018-Apr-20 05:00N 35°13' E 139°44'1 1.7
2018-Apr-20 04:30N 35°13' E 139°43'0 0.0
2018-Apr-20 04:00N 35°13' E 139°43'1 1.7
2018-Apr-20 03:30N 35°13' E 139°44'510.2
2018-Apr-20 03:00N 35°10' E 139°49'0 0.0
2018-Apr-20 02:30N 35°10' E 139°49'0 0.0
2018-Apr-20 02:00N 35°10' E 139°49'5 9.7
2018-Apr-20 01:30N 35°13' E 139°44'1 2.0
2018-Apr-20 01:00N 35°13' E 139°43'4 8.8
2018-Apr-20 00:30N 35°11' E 139°48'1 2.9
2018-Apr-20 00:00N 35°10' E 139°49'5 9.7
2018-Apr-19 23:30N 35°13' E 139°44'1 2.1
2018-Apr-19 23:00N 35°13' E 139°43'3 6.9
2018-Apr-19 22:30N 35°11' E 139°47'2 4.7
2018-Apr-19 22:00N 35°10' E 139°49'510.1
2018-Apr-19 21:30N 35°13' E 139°44'1 1.9
2018-Apr-19 21:00N 35°13' E 139°43'0 0.0
2018-Apr-19 11:10N 35°13' E 139°43'1 4.8
2018-Apr-19 11:00N 35°13' E 139°44'510.4
2018-Apr-19 10:30N 35°10' E 139°49'0 0.0
2018-Apr-19 10:00N 35°10' E 139°49'4 7.5
2018-Apr-19 09:30N 35°13' E 139°45'2 4.4
2018-Apr-19 09:00N 35°13' E 139°43'4 8.6
2018-Apr-19 08:30N 35°11' E 139°48'2 3.1
2018-Apr-19 08:00N 35°10' E 139°49'510.0
2018-Apr-19 07:30N 35°13' E 139°44'1 1.9
2018-Apr-19 07:00N 35°13' E 139°43'4 8.7
2018-Apr-19 06:30N 35°11' E 139°48'2 3.2
2018-Apr-19 06:00N 35°10' E 139°49'0 0.0
2018-Apr-19 05:30N 35°10' E 139°49'5 9.7
2018-Apr-19 05:00N 35°13' E 139°44'1 2.1
2018-Apr-19 04:30N 35°13' E 139°43'0 0.0
2018-Apr-19 04:00N 35°13' E 139°43'1 1.3
2018-Apr-19 03:30N 35°13' E 139°44'510.6
2018-Apr-19 03:00N 35°10' E 139°49'0 0.0
2018-Apr-19 02:30N 35°10' E 139°49'0 0.0
2018-Apr-19 01:59N 35°10' E 139°49'510.2
2018-Apr-19 01:30N 35°13' E 139°44'1 1.9
2018-Apr-19 01:00N 35°13' E 139°43'4 8.7
2018-Apr-19 00:30N 35°11' E 139°48'1 3.0
2018-Apr-19 00:00N 35°10' E 139°49'5 9.7
2018-Apr-18 23:30N 35°13' E 139°44'1 2.1
2018-Apr-18 23:00N 35°13' E 139°43'3 6.7
2018-Apr-18 22:30N 35°12' E 139°47'3 5.1
2018-Apr-18 22:00N 35°10' E 139°49'5 9.4
2018-Apr-18 21:30N 35°13' E 139°44'1 2.5
2018-Apr-18 21:00N 35°13' E 139°43'0 0.0
2018-Apr-18 11:08N 35°13' E 139°43'0 3.9
2018-Apr-18 11:00N 35°13' E 139°43'510.9
2018-Apr-18 10:30N 35°10' E 139°49'0 0.0
2018-Apr-18 10:00N 35°10' E 139°49'4 7.4
2018-Apr-18 09:30N 35°12' E 139°45'2 4.3
2018-Apr-18 09:01N 35°13' E 139°43'5 8.9
2018-Apr-18 08:30N 35°11' E 139°48'1 2.8
2018-Apr-18 08:01N 35°10' E 139°49'5 9.3
2018-Apr-18 07:30N 35°13' E 139°44'1 2.5
2018-Apr-18 07:00N 35°13' E 139°43'4 9.0
2018-Apr-18 06:30N 35°11' E 139°48'1 2.9
2018-Apr-18 06:00N 35°10' E 139°49'0 0.0
2018-Apr-18 05:31N 35°10' E 139°49'5 9.8
2018-Apr-18 05:00N 35°13' E 139°44'1 1.9
2018-Apr-18 04:30N 35°13' E 139°43'0 0.0
2018-Apr-18 04:00N 35°13' E 139°43'1 2.1
2018-Apr-18 03:30N 35°13' E 139°44'5 9.9
2018-Apr-18 03:01N 35°10' E 139°49'0 0.0
2018-Apr-18 02:30N 35°10' E 139°49'0 0.0
2018-Apr-18 02:00N 35°10' E 139°49'510.4
2018-Apr-18 01:30N 35°13' E 139°44'1 1.4
2018-Apr-18 00:59N 35°13' E 139°43'5 9.5
2018-Apr-18 00:30N 35°11' E 139°48'1 2.6
2018-Apr-18 00:00N 35°10' E 139°49'510.3
2018-Apr-17 23:30N 35°13' E 139°44'1 1.5
2018-Apr-17 22:59N 35°13' E 139°43'4 7.4
2018-Apr-17 22:30N 35°11' E 139°47'2 4.6
2018-Apr-17 22:00N 35°10' E 139°49'5 9.3
2018-Apr-17 21:30N 35°13' E 139°44'1 2.4
2018-Apr-17 21:00N 35°13' E 139°43'0 0.0
2018-Apr-17 11:10N 35°13' E 139°43'1 3.7
2018-Apr-17 11:00N 35°13' E 139°44'510.7
2018-Apr-17 10:30N 35°10' E 139°49'0 0.0
2018-Apr-17 10:00N 35°10' E 139°49'4 7.9
2018-Apr-17 09:30N 35°12' E 139°45'2 3.9
2018-Apr-17 09:00N 35°13' E 139°43'4 9.0
2018-Apr-17 08:30N 35°11' E 139°48'1 2.9
2018-Apr-17 08:00N 35°10' E 139°49'5 9.4
2018-Apr-17 07:30N 35°13' E 139°44'1 2.4
2018-Apr-17 07:00N 35°13' E 139°43'5 9.1
2018-Apr-17 06:30N 35°11' E 139°48'1 2.7
2018-Apr-17 06:00N 35°10' E 139°49'0 0.0
2018-Apr-17 05:30N 35°10' E 139°49'510.1
2018-Apr-17 05:00N 35°13' E 139°44'1 1.6
2018-Apr-17 04:30N 35°13' E 139°43'0 0.0
2018-Apr-17 04:00N 35°13' E 139°43'1 2.7
2018-Apr-17 03:30N 35°13' E 139°45'5 9.2
2018-Apr-17 03:00N 35°10' E 139°49'0 0.0
2018-Apr-17 02:30N 35°10' E 139°49'0 0.0
2018-Apr-17 02:00N 35°10' E 139°49'510.2
2018-Apr-17 01:30N 35°13' E 139°44'1 1.6
2018-Apr-17 01:00N 35°13' E 139°43'5 8.9
2018-Apr-17 00:30N 35°11' E 139°48'1 2.8
2018-Apr-17 00:00N 35°10' E 139°49'510.1
2018-Apr-16 23:30N 35°13' E 139°44'1 1.7
2018-Apr-16 23:00N 35°13' E 139°43'3 6.9
2018-Apr-16 22:30N 35°12' E 139°47'2 4.7
2018-Apr-16 22:00N 35°10' E 139°49'510.5
2018-Apr-16 21:30N 35°13' E 139°44'1 1.6
2018-Apr-16 21:00N 35°13' E 139°43'0 0.0
2018-Apr-16 11:09N 35°13' E 139°43'1 4.0
2018-Apr-16 10:59N 35°13' E 139°44'510.6
2018-Apr-16 10:29N 35°10' E 139°49'0 0.0
2018-Apr-16 10:00N 35°10' E 139°49'4 8.3
2018-Apr-16 09:30N 35°13' E 139°45'2 3.5
2018-Apr-16 09:00N 35°13' E 139°43'4 9.0
2018-Apr-16 08:30N 35°11' E 139°48'1 2.9
2018-Apr-16 08:00N 35°10' E 139°49'510.4
2018-Apr-16 07:30N 35°13' E 139°44'1 1.5
2018-Apr-16 07:00N 35°13' E 139°43'4 8.9
2018-Apr-16 06:30N 35°11' E 139°48'1 2.9
2018-Apr-16 06:00N 35°10' E 139°49'0 0.0
2018-Apr-16 05:31N 35°10' E 139°49'5 9.9
2018-Apr-16 05:00N 35°13' E 139°44'1 1.9
2018-Apr-16 04:30N 35°13' E 139°43'0 0.0
2018-Apr-16 03:59N 35°13' E 139°43'1 1.7
2018-Apr-16 03:30N 35°13' E 139°44'510.3
2018-Apr-16 03:01N 35°10' E 139°49'0 0.0
2018-Apr-16 02:30N 35°10' E 139°49'0 0.0
2018-Apr-16 02:00N 35°10' E 139°49'510.2
2018-Apr-16 01:30N 35°13' E 139°44'1 1.6
2018-Apr-16 01:00N 35°13' E 139°43'4 8.8
2018-Apr-16 00:31N 35°11' E 139°47'1 2.9
2018-Apr-16 00:00N 35°10' E 139°49'5 9.8
2018-Apr-15 23:30N 35°13' E 139°44'1 2.0
2018-Apr-15 23:00N 35°13' E 139°43'4 7.5
2018-Apr-15 22:30N 35°11' E 139°46'2 4.6
2018-Apr-15 22:00N 35°10' E 139°49'510.5
2018-Apr-15 21:31N 35°13' E 139°44'1 1.3
2018-Apr-15 21:00N 35°13' E 139°43'0 0.1
2018-Apr-15 20:30N 35°13' E 139°43'0 0.0
2018-Apr-14 10:25N 35°13' E 139°43'0 0.2
2018-Apr-14 10:00N 35°13' E 139°43'510.8
2018-Apr-14 09:30N 35°11' E 139°49'1 1.0
2018-Apr-14 09:00N 35°10' E 139°49'611.5
2018-Apr-14 08:30N 35°13' E 139°43'0 0.2
2018-Apr-14 08:00N 35°13' E 139°43'611.2
2018-Apr-14 07:30N 35°10' E 139°49'0 0.2
2018-Apr-14 07:00N 35°10' E 139°49'611.6
2018-Apr-14 06:30N 35°13' E 139°43'0 0.5
2018-Apr-14 06:00N 35°13' E 139°43'4 8.8
2018-Apr-14 05:30N 35°11' E 139°48'2 3.1
2018-Apr-14 05:00N 35°10' E 139°49'510.0
2018-Apr-14 04:30N 35°13' E 139°44'1 1.8
2018-Apr-14 04:00N 35°13' E 139°43'510.7
2018-Apr-14 03:30N 35°11' E 139°49'1 1.0
2018-Apr-14 03:00N 35°10' E 139°49'611.5
2018-Apr-14 02:30N 35°13' E 139°43'0 0.4
2018-Apr-14 02:01N 35°13' E 139°43'510.8
2018-Apr-14 01:30N 35°10' E 139°49'0 0.7
2018-Apr-14 01:00N 35°10' E 139°49'611.6
2018-Apr-14 00:30N 35°13' E 139°43'0 0.3
2018-Apr-14 00:00N 35°13' E 139°43'3 7.0
2018-Apr-13 23:30N 35°11' E 139°47'2 4.7
2018-Apr-13 23:00N 35°10' E 139°49'5 9.5
2018-Apr-13 22:30N 35°13' E 139°44'1 2.2
2018-Apr-13 22:00N 35°13' E 139°43'5 9.2
2018-Apr-13 21:30N 35°11' E 139°48'1 2.6
2018-Apr-13 21:00N 35°10' E 139°49'0 0.0
2018-Apr-13 10:59N 35°10' E 139°49'4 8.8
2018-Apr-13 10:30N 35°13' E 139°45'2 3.4
2018-Apr-13 10:00N 35°13' E 139°43'510.8
2018-Apr-13 09:30N 35°10' E 139°49'0 1.0
2018-Apr-13 09:00N 35°10' E 139°49'611.6
2018-Apr-13 08:31N 35°13' E 139°43'0 0.4
2018-Apr-13 08:00N 35°13' E 139°43'611.1
2018-Apr-13 07:30N 35°10' E 139°49'0 0.8
2018-Apr-13 07:01N 35°10' E 139°49'611.0
2018-Apr-13 06:30N 35°13' E 139°43'0 0.3
2018-Apr-13 06:00N 35°13' E 139°43'0 0.0
2018-Apr-13 05:30N 35°13' E 139°43'3 5.0
2018-Apr-13 05:00N 35°12' E 139°46'3 6.8
2018-Apr-13 04:31N 35°10' E 139°49'0 0.0
2018-Apr-13 04:00N 35°10' E 139°49'3 6.7
2018-Apr-13 03:30N 35°12' E 139°46'3 5.1
2018-Apr-13 03:00N 35°13' E 139°43'0 0.0
2018-Apr-13 02:30N 35°13' E 139°43'0 0.5
2018-Apr-13 02:00N 35°13' E 139°43'611.1
2018-Apr-13 01:30N 35°10' E 139°49'0 0.5
2018-Apr-13 01:00N 35°10' E 139°49'611.6
2018-Apr-13 00:30N 35°13' E 139°43'0 0.4
2018-Apr-13 00:00N 35°13' E 139°43'4 7.2
2018-Apr-12 23:30N 35°12' E 139°47'2 4.5
2018-Apr-12 23:00N 35°10' E 139°49'510.2
2018-Apr-12 22:30N 35°13' E 139°44'1 1.7
2018-Apr-12 22:00N 35°13' E 139°43'4 8.8
2018-Apr-12 21:30N 35°11' E 139°48'1 2.9
2018-Apr-12 21:01N 35°10' E 139°49'0 0.0
2018-Apr-12 10:58N 35°10' E 139°49'4 8.7
2018-Apr-12 10:30N 35°12' E 139°45'2 3.7
2018-Apr-12 10:01N 35°13' E 139°43'510.8
2018-Apr-12 09:30N 35°11' E 139°49'0 1.0
2018-Apr-12 09:00N 35°10' E 139°49'611.7
2018-Apr-12 08:31N 35°13' E 139°43'1 1.5
2018-Apr-12 08:00N 35°13' E 139°44'510.2
2018-Apr-12 07:30N 35°10' E 139°49'0 0.2
2018-Apr-12 07:00N 35°10' E 139°49'611.6
2018-Apr-12 06:30N 35°13' E 139°43'0 0.3
2018-Apr-12 06:00N 35°13' E 139°43'0 0.0
2018-Apr-12 05:30N 35°13' E 139°43'2 4.7
2018-Apr-12 05:00N 35°12' E 139°45'4 7.0
2018-Apr-12 04:30N 35°10' E 139°49'0 0.0
2018-Apr-12 04:00N 35°10' E 139°49'3 6.0
2018-Apr-12 03:30N 35°12' E 139°46'3 5.7
2018-Apr-12 03:00N 35°13' E 139°43'0 0.0
2018-Apr-12 02:30N 35°13' E 139°43'0 0.1
2018-Apr-12 02:00N 35°13' E 139°43'510.8
2018-Apr-12 01:30N 35°11' E 139°48'1 1.2
2018-Apr-12 01:01N 35°10' E 139°49'611.6
2018-Apr-12 00:30N 35°13' E 139°43'0 0.5
2018-Apr-12 00:00N 35°13' E 139°43'3 6.7
2018-Apr-11 23:30N 35°12' E 139°47'  

Dump ship's entire track history